Facundo Miranda

Scout - Estudiantes
4 Apr 2027
Sonntag
Verarbeitung

Persönlichkeit

Anpassungsfähigkeit (1) Ehrgeiz (1) Kontroverse (2) Loyalität (6) Druck (12) Professionalität (7) Fairness (20) Temperament (15)

Profil

Trainerstil Demokratisch
Lizenz Kontinentale A
Entschlossenheit 9
Menschenführung 8
Motivation 8
Disziplin 8
Arbeitszufriedenheit
50%
Ermüdung
0%
Rolle Scout
Gehalt 59.5K p/W
Vertrag 14.03.2028

Leistung

Verhalten Normal
Trainingseffektivität
21%
Spielerentwicklung
75%
Verletzungsprävention
35%
Taktische Umsetzung
35%

Letzte Ereignisse

Nahm an einer Scouting-Besprechung teil jetzt
Spieler begutachtet jetzt
Spieler begutachtet jetzt
Spieler begutachtet jetzt
Spieler begutachtet jetzt
Spieler begutachtet 7T her
Spieler begutachtet 7T her
Spieler begutachtet 7T her

Aktuell beobachtet

186
Spieler Verein Status Fähigkeit Vertrauen Beobachtet Zuletzt beobachtet Letzte Stimme
Julian Weigl Al-Qadisiyah Aktiv 148 / 149 40% 3 03.04.2027 -
Moussa Diaby Al-Ittihad Aktiv 136 / 132 40% 1 03.04.2027 -
Steven Bergwijn Al-Ittihad Aktiv 144 / 151 40% 1 02.04.2027 -
Giovanni Simeone Torino Aktiv 142 / 137 40% 1 02.04.2027 -
Luis Ingolotti Atlético Tucumán Aktiv 116 / 135 40% 3 31.03.2027 -
Arthur Gomes Dinamo Moscow Aktiv 128 / 133 40% 1 31.03.2027 -
Musa Barrow Al-Khaleej Aktiv 138 / 124 40% 1 31.03.2027 -
Mateo Clemente San Lorenzo Aktiv 105 / 114 40% 1 31.03.2027 -
Bart van Rooij Twente Aktiv 154 / 145 40% 2 30.03.2027 -
Galeno Al-Ahli Aktiv 153 / 135 40% 3 30.03.2027 -
Morten Frendrup Genoa Aktiv 133 / 132 40% 1 30.03.2027 -
Sidney Lima Santa Clara Aktiv 116 / 121 40% 1 28.03.2027 -
Diego Costa Krasnodar Aktiv 129 / 142 40% 1 27.03.2027 -
Lennon Miller Udinese Aktiv 128 / 145 40% 1 27.03.2027 -
Christian Krasnodar Aktiv 140 / 136 40% 2 26.03.2027 -
Raúl García Osasuna Aktiv 147 / 148 40% 2 26.03.2027 -
Robin Fellhauer FC Augsburg Aktiv 125 / 121 40% 1 26.03.2027 -
Uriel Antuna Dinamo Moscow Aktiv 139 / 123 40% 1 26.03.2027 -
Jean-Luc Morin Tours Aktiv 133 / 125 40% 2 24.03.2027 -
Yusuke Matsuo CSKA Moscow Aktiv 134 / 137 40% 1 24.03.2027 -
Luciano Gondou CSKA Moscow Aktiv 144 / 122 40% 3 23.03.2027 -
Ellis Simms Coventry City Aktiv 126 / 110 40% 1 23.03.2027 -
Sinclair Armstrong Bristol City Aktiv 120 / 128 40% 1 23.03.2027 -
Alexey Batrakov Galatasaray Aktiv 137 / 137 40% 1 23.03.2027 -
Nilson Angulo Sunderland Aktiv 122 / 119 40% 4 22.03.2027 -
Kaio Jorge Cruzeiro Aktiv 143 / 144 40% 1 22.03.2027 -
Morgan Whittaker Middlesbrough Aktiv 140 / 113 40% 2 20.03.2027 -
Santiago Solari Racing Club Aktiv 121 / 127 40% 1 20.03.2027 -
Ander Barrenetxea Real Sociedad Aktiv 135 / 165 40% 2 19.03.2027 -
Negueba Mirassol Aktiv 127 / 134 40% 2 19.03.2027 -
Andrew Moran Preston Aktiv 137 / 124 40% 1 19.03.2027 -
Brenner Vasco da Gama Aktiv 122 / 118 40% 1 19.03.2027 -
Michel Ndary Adopo Cagliari Aktiv 128 / 126 40% 2 18.03.2027 -
Noah Sadiki Sunderland Aktiv 159 / 139 40% 3 18.03.2027 -
Haji Wright Coventry City Aktiv 130 / 118 40% 1 17.03.2027 -
Aitor Ruibal Betis Aktiv 142 / 120 40% 2 15.03.2027 -
Vitaly Janelt Brentford Aktiv 148 / 154 40% 1 15.03.2027 -
Henrik Meister Fiorentina Aktiv 116 / 115 40% 1 15.03.2027 -
Abu Kamara Portsmouth Aktiv 112 / 129 40% 1 15.03.2027 -
Thomas Hasal Los Angeles Football Club Aktiv 113 / 110 40% 1 14.03.2027 -
Lautaro Amadé Defensa y Justicia Aktiv 126 / 113 40% 1 14.03.2027 -
Lucas Villalba Botafogo Aktiv 129 / 133 40% 1 14.03.2027 -
Richard Ludha MFK Skalica Aktiv 128 / 109 40% 4 11.03.2027 -
Domagoj Bradarić Hellas Verona Aktiv 116 / 122 40% 1 11.03.2027 -
Gabriel Sara Galatasaray Aktiv 160 / 126 40% 1 11.03.2027 -
Toni Fuidias Girona Aktiv 128 / 118 40% 1 11.03.2027 -
Mateusz Kochalski Qarabag Aktiv 127 / 125 40% 4 10.03.2027 -
Uchenna Ogundu FC Augsburg Aktiv 125 / 137 40% 1 10.03.2027 -
Santiago Roggero Gimnasia y Esgrima Aktiv 123 / 115 40% 1 10.03.2027 -
Manuel Roffo Cerro Porteno Aktiv 131 / 140 40% 2 07.03.2027 -
Sebastián Meza Huracán Aktiv 124 / 131 40% 2 07.03.2027 -
Chris Ramos Botafogo Aktiv 132 / 115 40% 1 04.03.2027 -
Tijjani Reijnders Al-Qadisiyah Aktiv 174 / 154 40% 3 03.03.2027 -
Kobbie Mainoo Manchester United Aktiv 147 / 143 40% 2 02.03.2027 -
Luke Thomas Leicester City Aktiv 143 / 136 40% 1 02.03.2027 -
Maximilian Mittelstädt VfB Stuttgart Aktiv 153 / 159 40% 1 01.03.2027 -
Santiago González Sporting Cristal Aktiv 127 / 133 40% 1 28.02.2027 -
Agustín Hausch Defensa y Justicia Aktiv 119 / 115 40% 1 28.02.2027 -
Brayan Gil Baltika Aktiv 138 / 138 40% 4 26.02.2027 -
Mateo Retegui Al-Qadisiyah Aktiv 174 / 164 40% 1 26.02.2027 -
Crysencio Summerville Al-Hilal Aktiv 144 / 157 40% 1 25.02.2027 -
Gedson Fernandes Spartak Moscow Aktiv 151 / 140 40% 1 24.02.2027 -
Vinicius Tobias Shakhtar Aktiv 123 / 146 40% 2 23.02.2027 -
Gustavo Mantuan Zenit Aktiv 138 / 147 40% 1 23.02.2027 -
Thierry Rendall Correia Venezia Aktiv 148 / 154 40% 2 22.02.2027 -
Josh Brownhill Al-Shabab Aktiv 122 / 138 40% 1 22.02.2027 -
Axel Openda KV Oostende Aktiv 137 / 144 40% 1 22.02.2027 -
Ricky-Jade Jones St. Pauli Aktiv 116 / 116 40% 1 20.02.2027 -
Yegor Golenkov Rostov Aktiv 117 / 129 40% 1 20.02.2027 -
Teboho Williams SuperSport United Aktiv 140 / 103 40% 2 18.02.2027 -
Haissem Hassan Bloemfontein Celtic Aktiv 132 / 149 40% 1 18.02.2027 -
Jamie Cumming Oxford United Aktiv 142 / 117 40% 2 17.02.2027 -
Dimitar Sheytanov CSKA 1948 Aktiv 111 / 122 40% 1 17.02.2027 -
Adrián Alavés Aktiv 107 / 104 40% 2 16.02.2027 -
Marios Siabanis Volos NPS Aktiv 110 / 104 40% 1 16.02.2027 -
Lorenzo Pirola Olympiacos Aktiv 131 / 148 40% 1 15.02.2027 -
Pablo Solari Spartak Moscow Aktiv 131 / 111 40% 2 13.02.2027 -
Svetoslav Vutsov Levski Aktiv 131 / 113 40% 1 12.02.2027 -
Panajot Qirko Partizani Tirana Aktiv 121 / 119 40% 1 12.02.2027 -
Jason Al-Fayha Aktiv 145 / 140 40% 1 12.02.2027 -
Helinho Toluca Aktiv 136 / 125 40% 1 12.02.2027 -
Morten Hjulmand Atlético Madrid Aktiv 137 / 143 40% 1 10.02.2027 -
Jaime Seoane Al-Faisaly Aktiv 122 / 121 40% 1 09.02.2027 -
Natan Betis Aktiv 160 / 160 40% 1 09.02.2027 -
Rúben Neves Al-Hilal Aktiv 166 / 157 40% 1 08.02.2027 -
Óscar Al-Diriyah Aktiv 139 / 117 40% 1 07.02.2027 -
Rhian Brewster Derby County Aktiv 130 / 128 40% 1 06.02.2027 -
Nicolás Sumavil Platense Aktiv 126 / 129 40% 1 05.02.2027 -
Jan Hurtado Volos NPS Aktiv 110 / 107 40% 1 04.02.2027 -
Kingsley Coman Al-Nassr Aktiv 137 / 155 40% 1 03.02.2027 -
Daniel Paraschiv Bnei Sakhnin Aktiv 103 / 127 40% 1 01.02.2027 -
Percy Erasmus SuperSport United Aktiv 133 / 129 40% 1 01.02.2027 -
Federico Losas Leon Aktiv 120 / 119 40% 1 31.01.2027 -
Rok Zajc NK Domzale Aktiv 131 / 121 40% 1 29.01.2027 -
Moses Cobnan Krasnodar Aktiv 116 / 110 40% 1 29.01.2027 -
Cristopher Varela Deportivo La Guaira Aktiv 127 / 106 40% 1 26.01.2027 -
Aldo Pérez Guarani Aktiv 107 / 122 40% 2 25.01.2027 -
Santino Barbi Talleres Aktiv 119 / 107 40% 1 24.01.2027 -
Jay Gorter Pafos Aktiv 104 / 109 40% 1 24.01.2027 -
Marcelo Allende Mamelodi Sundowns Aktiv 149 / 132 40% 2 22.01.2027 -
Ignacio Russo Tigre Aktiv 129 / 132 40% 1 20.01.2027 -
Oufa Shobeir ES Setif Aktiv 133 / 138 40% 1 12.01.2027 -
Samu Maccabi Netanya Aktiv 99 / 114 40% 1 12.01.2027 -
Nazar Voloshyn Dynamo Kyiv Aktiv 144 / 128 40% 1 10.01.2027 -
Ihor Krasnopir Polissia Aktiv 121 / 121 40% 2 09.01.2027 -
Ola Brynhildsen Bodo/Glimt Aktiv 113 / 145 40% 1 09.01.2027 -
Ammar Ramadan DAC Dunajska Streda Aktiv 118 / 134 40% 1 07.01.2027 -
Armstrong Oko-Flex Levski Aktiv 115 / 106 40% 1 05.01.2027 -
Ivan Pakholiuk Kolos Aktiv 116 / 111 40% 1 04.01.2027 -
Iqraam Rayners Mamelodi Sundowns Aktiv 146 / 127 40% 1 04.01.2027 -
Fedor Lapoukhov CSKA Sofia Aktiv 115 / 133 40% 1 30.12.2026 -
Santiago Silva Boston River Aktiv 124 / 128 40% 1 29.12.2026 -
Nikita Kokarev Krylya Sovetov Abgelehnt 130 / 102 40% 1 29.12.2026 Mehr Infos nötig
Mandla Jali SuperSport United Aktiv 104 / 103 40% 1 28.12.2026 -
Ruslan Neshcheret Dynamo Kyiv Aktiv 113 / 114 40% 1 15.12.2026 -
Luciano Jachfe Nueva Chicago Aktiv 110 / 117 40% 1 15.12.2026 -
Luciano Jachfe Nueva Chicago Verloren 108 / 108 40% 3 30.11.2026 -
Nahuel Galardi Maipú Aktiv 112 / 124 40% 1 30.11.2026 -
Mauro Arambarri River Plate Aktiv 164 / 166 40% 2 29.11.2026 -
Chris Brady Chicago Fire Aktiv 139 / 140 40% 2 27.11.2026 -
Alexandru Dragusin Astra Aktiv 105 / 94 40% 1 27.11.2026 -
Luiz Felipe Rayo Vallecano Aktiv 143 / 130 40% 2 25.11.2026 -
Roman Celentano FC Cincinnati Aktiv 114 / 110 40% 2 24.11.2026 -
Victor Aznar Cádiz Aktiv 113 / 121 40% 1 24.11.2026 -
Mohamed Ali Ben Romdhane Al Ahly Aktiv 138 / 127 40% 1 17.11.2026 -
Santiago Ascacíbar Boca Juniors Aktiv 143 / 137 40% 1 17.11.2026 -
David Junuzovic Mattersburg Aktiv 145 / 145 40% 3 16.11.2026 -
Otávio Al-Qadisiyah Aktiv 129 / 133 40% 1 16.11.2026 -
Antonín Kinský Tottenham Abgelehnt 133 / 144 40% 1 14.11.2026 Mehr Infos nötig
Sergiu Ratiu Pandurii Verloren 121 / 106 40% 1 14.11.2026 -
Lukas Gütlbauer Wolfsberger AC Aktiv 125 / 132 40% 1 13.11.2026 -
Sławomir Abramowicz Jagiellonia Aktiv 113 / 140 40% 1 13.11.2026 -
Ivan Pakholiuk Kolos Verloren 123 / 130 40% 1 11.11.2026 -
Evander FC Cincinnati Aktiv 135 / 150 40% 2 09.11.2026 -
Théo Hernández Al-Hilal Aktiv 169 / 145 40% 1 09.11.2026 -
Rodrigo Huescas FC Copenhagen Aktiv 151 / 129 40% 2 07.11.2026 -
Danil Glebov Dinamo Moscow Aktiv 121 / 128 40% 1 07.11.2026 -
Daniil Khudyakov Sturm Graz Verloren 128 / 122 40% 1 06.11.2026 -
Evidence Billiat Ajax Cape Town Aktiv 98 / 118 40% 2 05.11.2026 -
Iñaki Peña Panathinaikos Aktiv 143 / 124 40% 1 05.11.2026 -
Mandla Jali SuperSport United Verloren 126 / 110 40% 1 04.11.2026 -
Nikita Kokarev Krylya Sovetov Verloren 119 / 135 40% 1 03.11.2026 Mehr Infos nötig
Adrián Alavés Verloren 112 / 139 40% 1 03.11.2026 -
Ignacio Vázquez Platense Aktiv 116 / 115 40% 2 01.11.2026 -
Pablo Maffeo Olympiacos Aktiv 139 / 123 40% 3 01.11.2026 -
Gabriel Pereira FC Copenhagen Aktiv 144 / 144 40% 1 31.10.2026 -
Christopher Martins Pereira Spartak Moscow Aktiv 118 / 108 40% 1 31.10.2026 -
Ştefan Târnovanu FCSB Aktiv 123 / 102 40% 1 29.10.2026 -
Keisuke Osako Sanfrecce Hiroshima Aktiv 145 / 152 40% 1 29.10.2026 -
Răzvan Sava Universitatea Craiova Aktiv 121 / 142 40% 1 26.10.2026 -
Adrián Marín Orlando City Aktiv 126 / 115 40% 1 24.10.2026 -
Pablo Ramón Racing Club Aktiv 130 / 118 40% 1 22.10.2026 -
Williams Alarcón Boca Juniors Aktiv 119 / 133 40% 1 20.10.2026 -
Santiago Longo Belgrano Aktiv 125 / 131 40% 1 20.10.2026 -
Ondrej Duda Zamalek Aktiv 115 / 140 40% 1 19.10.2026 -
Keaton Parks New York City Aktiv 138 / 138 40% 1 12.10.2026 -
Nahuel Manganelli Dinamo Batumi Aktiv 95 / 133 40% 1 09.10.2026 -
Esteban Glellel Shonan Bellmare Aktiv 113 / 123 40% 2 07.10.2026 -
Felipe San Juan Gimnasia y Esgrima Aktiv 124 / 112 40% 1 07.10.2026 -
Santiago González Tigre Aktiv 113 / 134 40% 1 05.10.2026 -
Felipe Zenobio Tigre Verloren 133 / 139 40% 1 04.10.2026 -
Yeray Athletic Bilbao Aktiv 115 / 124 40% 2 03.10.2026 -
Ayrton Costa Boca Juniors Aktiv 145 / 143 40% 1 03.10.2026 -
Lucas Torreira Galatasaray Aktiv 165 / 162 40% 1 02.10.2026 -
Bryan Ramírez FC Cincinnati Aktiv 139 / 134 40% 1 02.10.2026 -
Diego Romero Universitario Aktiv 107 / 112 40% 2 01.10.2026 -
John Pulskamp Sporting Kansas City Aktiv 114 / 125 40% 1 30.09.2026 -
Obinna Nwobodo FC Cincinnati Aktiv 133 / 122 40% 1 28.09.2026 -
Luka Gavran Toronto FC Aktiv 108 / 98 40% 1 25.09.2026 -
Emanuel Mammana Vélez Aktiv 141 / 125 40% 1 25.09.2026 -
Anthony Racioppi Sion Aktiv 106 / 119 40% 1 22.09.2026 -
Fidel Ambríz Monterrey Aktiv 137 / 133 40% 1 19.09.2026 -
Ramón Juárez Club America Aktiv 130 / 122 40% 1 19.09.2026 -
Sebastián Cáceres Club America Aktiv 142 / 130 40% 2 18.09.2026 -
Sebastian Hernandez Cortulua Aktiv 125 / 111 40% 2 17.09.2026 -
Alejandro Rodríguez Deportivo Cali Aktiv 117 / 127 40% 1 16.09.2026 -
Sergio Quintero La Equidad Aktiv 140 / 153 40% 1 15.09.2026 -
Sergio Garcia La Equidad Aktiv 131 / 123 40% 1 13.09.2026 -
Patrick Schulte Columbus Crew Aktiv 131 / 129 40% 1 11.09.2026 -
Sergio Barreto Pachuca Aktiv 134 / 120 40% 1 11.08.2026 -
Gerardo Arteaga Monterrey Aktiv 115 / 121 40% 1 11.08.2026 -
Yuma Suzuki Kashima Antlers Aktiv 156 / 117 40% 2 08.08.2026 -
Federico Pereira Toluca Aktiv 141 / 138 40% 1 04.08.2026 -
Ricardo Horta Braga Aktiv 158 / 131 40% 1 02.08.2026 -
Carlos Vinícius Grêmio Aktiv 121 / 146 40% 1 02.08.2026 -
Veljko Birmančević Ferencvaros Aktiv 122 / 119 40% 1 01.08.2026 -